Terminal Aerodrome Forecast
Issued by NWS

Current Version | Previous Version | Graphics & Text | Print | Product List | Glossary On
Versions: 1 2 3 4 5 6 7 8 9 10 11 12 13 14 15 16 17 18 19 20 21 22 23 24 25 26 27 28 29 30
133
FTUS41 KPBZ 211725
TAFHLG
TAF
KHLG 211725Z 2118/2218 00000KT P6SM SCT025
     FM212200 29003KT P6SM BKN110
     FM220800 00000KT 3SM BR SCT150
     FM221000 00000KT 2SM BR SCT100
     FM221400 19005KT P6SM VCTS BKN025CB
     FM221600 20007KT P6SM -SHRA VCTS BKN050CB=

USA.gov is the U.S. government's official web portal to all federal, state and local government web resources and services.